Airfield :
LOGIN :

Register | Disclaimer

   EN    FR    IT 

 










Legend :    VFR   Marginal VFR   IFR   Intensive IFR   Very Intensive IFR
Visi :
Ceiling :
>= 8 km
>= 3000ft
5 to 8 km
1000 to 3000 ft
1500m to 5 km
500 to 1000 ft
800 to 1500m
200 to 500 ft
< 800m
< 200 ft
Symbols :   Thunderstorms  Fog  Heavy snow  Heavy precipitations  Wind > 20 kt
SIGMETs :     Misc.  Thunderstorms  Icing  Turbulence  Mountain Waves  Volcanic Ashes






- Airport Elevation : 74 ft
- IATA code : LRH


LFBH - La Rochelle Ile de Ré

CURRENT METAR :
  • 290630Z AUTO 33002KT 9999 1700 NSC 06/06 Q1019 TEMPO 0800 FG VV///

EXPIRED METARs :
  • 290600Z AUTO 35003KT 9999 NSC 07/07 Q1019 TEMPO 0800 FG VV///
  • 290530Z AUTO 05002KT 9999 NSC 07/06 Q1019 TEMPO 0800 FG VV///
  • 290500Z AUTO 05002KT 9999 NSC 07/06 Q1018 BECMG 0800 FG VV///
  • 290430Z AUTO 02004KT 9999 NSC 07/07 Q1018 BECMG 0800 FG VV///
  • 290400Z AUTO 02003KT 9999 SCT040 08/07 Q1018 BECMG 0800 FG VV///

TAF TAF LFBH
Valid from the 29 at 06:00 until the 30 at 06:00 UTC


290500Z 2906/3006 02003KT 9999 SCT040
TEMPO 2906/2909 0800 FG VV///
BECMG 2921/2923 3000 BR BKN003
TEMPO 3000/3006 0800 FG VV///
ATIS : +33 5 46 00 13 92



MET'MAP, your aeronautical weather chart ! - Copyright ORBIFLY December 2007 - Disclaimer

ORBIFLY MET'MAP TEAM :

Programming & Development : Alexandra Zaïnal
Original concept : Baudouin d'Aumeries
Technical & hardware support : Manuel Goepfert
Assistance : Marc-Olivier Méhu




SOURCES & CREDITS :

   NOAA